Banos de Copahue, Argentina
Current Conditions -  °F | °C
As of 12:00 AM on Tuesday 27 Jan 2015 (Local Time) from SCQP Reporting Station
Clear Clear  
Wind Chill: 57°   Ceiling: Unl
Heat Index: 57°   Visibility: 6mi
Dew Point: 54°   Wind: 6mph
Humidity: 88%   Direction: 260°W
Pressure: 30"   Gusts: NA
Location:  37.8°S, 71.12°W
Report Text: SCQP 270300Z 26005KT 230V290 CAVOK 14/12 Q1016
Loading
Personal Weather Stations






























Interactive Weather Map New forecast layout! Learn more

10-Day Weather Forecast

Advertisements
Track Severe Weather on mobile